Time;durP1;ratioP1;P1;durP2;ratioP2;P2;SDS_P1;SDS_P2;PMS_P1;PMS_P2;Temp;Humidity;BMP_temperature;BMP_pressure;BME280_temperature;BME280_humidity;BME280_pressure;Samples;Min_cycle;Max_cycle;Signal;HPM_P1;HPM_P2
2023/01/28 00:02:05;;;;;;;8.17;5.50;;;1.30;99.90;;;;;;4992062;28;20194;-75
2023/01/28 00:04:31;;;;;;;8.73;5.30;;;1.30;99.90;;;;;;4985094;28;20547;-72
2023/01/28 00:06:56;;;;;;;7.47;4.80;;;1.30;99.90;;;;;;4981407;28;20194;-72
2023/01/28 00:09:22;;;;;;;6.90;5.00;;;1.40;99.90;;;;;;4982219;28;20562;-72
2023/01/28 00:11:47;;;;;;;6.90;5.33;;;1.30;99.90;;;;;;4981052;28;20222;-73
2023/01/28 00:14:13;;;;;;;7.17;5.07;;;1.30;99.90;;;;;;4979088;28;20675;-72
2023/01/28 00:16:38;;;;;;;9.30;6.10;;;1.30;99.90;;;;;;4982244;28;20198;-72
2023/01/28 00:19:04;;;;;;;7.93;5.93;;;1.30;99.90;;;;;;4968160;28;20558;-72
2023/01/28 00:21:30;;;;;;;10.10;6.07;;;1.30;99.90;;;;;;4984473;28;20215;-71
2023/01/28 00:23:56;;;;;;;6.30;5.23;;;1.30;99.90;;;;;;4977112;28;20197;-72
2023/01/28 00:26:24;;;;;;;7.97;5.53;;;1.30;99.90;;;;;;4985244;28;20588;-73
2023/01/28 00:28:49;;;;;;;8.60;5.00;;;1.30;99.90;;;;;;4981645;28;20401;-72
2023/01/28 00:31:25;;;;;;;7.47;5.93;;;1.30;99.90;;;;;;4972899;28;21038;-72
2023/01/28 00:33:52;;;;;;;6.27;5.00;;;1.30;99.90;;;;;;4983370;28;20193;-72
2023/01/28 00:36:19;;;;;;;5.43;4.40;;;1.30;99.90;;;;;;4984245;28;20434;-72
2023/01/28 00:39:00;;;;;;;8.10;4.83;;;1.30;99.90;;;;;;4982011;28;20442;-72
2023/01/28 00:41:28;;;;;;;8.03;5.27;;;1.40;99.90;;;;;;4980370;28;20474;-72
2023/01/28 00:43:54;;;;;;;7.20;5.77;;;1.40;99.90;;;;;;4975571;28;20430;-72
2023/01/28 00:46:21;;;;;;;8.80;5.83;;;1.30;99.90;;;;;;4984165;28;20466;-72
2023/01/28 00:48:47;;;;;;;8.20;5.10;;;1.30;99.90;;;;;;4981605;28;20500;-72
2023/01/28 00:51:16;;;;;;;6.97;5.70;;;1.30;99.90;;;;;;4978284;28;20485;-72
2023/01/28 00:53:42;;;;;;;6.93;5.07;;;1.30;99.90;;;;;;4982165;28;20441;-72
2023/01/28 00:56:11;;;;;;;9.10;4.60;;;1.30;99.90;;;;;;4980598;28;20799;-72
2023/01/28 00:58:36;;;;;;;5.10;4.43;;;1.30;99.90;;;;;;4980814;28;20582;-71
2023/01/28 01:01:17;;;;;;;7.43;4.93;;;1.30;99.90;;;;;;4980545;28;20564;-72
2023/01/28 01:03:43;;;;;;;8.23;4.40;;;1.40;99.90;;;;;;4982147;28;20187;-72
2023/01/28 01:06:10;;;;;;;5.60;4.67;;;1.40;99.90;;;;;;4983667;28;20433;-72
2023/01/28 01:08:38;;;;;;;6.00;4.80;;;1.40;99.90;;;;;;4983587;28;20189;-72
2023/01/28 01:11:05;;;;;;;5.47;3.93;;;1.40;99.90;;;;;;4987661;28;20495;-72
2023/01/28 01:13:33;;;;;;;6.10;4.50;;;1.40;99.90;;;;;;4980627;28;20430;-72
2023/01/28 01:16:10;;;;;;;6.90;5.10;;;1.40;99.90;;;;;;4976079;28;20968;-73
2023/01/28 01:18:40;;;;;;;8.40;5.80;;;1.40;99.90;;;;;;4983221;28;20448;-72
2023/01/28 01:21:08;;;;;;;8.97;5.43;;;1.40;99.90;;;;;;4967406;28;20911;-73
2023/01/28 01:23:34;;;;;;;7.47;4.80;;;1.40;99.90;;;;;;4983251;28;20449;-72
2023/01/28 01:25:59;;;;;;;7.43;4.70;;;1.40;99.90;;;;;;4980220;28;20428;-72
2023/01/28 01:28:25;;;;;;;8.00;5.17;;;1.30;99.90;;;;;;4970034;28;20216;-73
2023/01/28 01:31:01;;;;;;;7.90;5.03;;;1.40;99.90;;;;;;4972992;28;20307;-72
2023/01/28 01:33:28;;;;;;;5.13;4.03;;;1.40;99.90;;;;;;4984304;28;20247;-72
2023/01/28 01:35:54;;;;;;;5.97;4.47;;;1.40;99.90;;;;;;4986981;28;20459;-72
2023/01/28 01:38:20;;;;;;;7.87;4.47;;;1.40;99.90;;;;;;4987694;28;20921;-72
2023/01/28 01:40:45;;;;;;;7.50;4.83;;;1.40;99.90;;;;;;4985603;28;20563;-72
2023/01/28 01:43:18;;;;;;;7.00;4.60;;;1.40;99.90;;;;;;4981042;28;20193;-72
2023/01/28 01:45:47;;;;;;;4.70;4.00;;;1.40;99.90;;;;;;4985768;28;20665;-72
2023/01/28 01:48:13;;;;;;;4.77;3.67;;;1.40;99.90;;;;;;4981274;28;20482;-72
2023/01/28 01:50:56;;;;;;;4.93;4.40;;;1.40;99.90;;;;;;4986313;28;20482;-72
2023/01/28 01:53:23;;;;;;;6.67;4.77;;;1.40;99.90;;;;;;4982136;28;20274;-72
2023/01/28 01:55:52;;;;;;;5.60;4.10;;;1.40;99.90;;;;;;4984994;28;20401;-72
2023/01/28 01:58:20;;;;;;;6.97;4.97;;;1.40;99.90;;;;;;4981678;28;20462;-72
2023/01/28 03:36:55;;;;;;;5.50;4.43;;;1.50;99.90;;;;;;4981314;28;20434;-73
2023/01/28 03:39:25;;;;;;;8.90;6.20;;;1.50;99.90;;;;;;4973650;28;20774;-73
2023/01/28 03:42:04;;;;;;;8.57;6.13;;;1.50;99.90;;;;;;4989172;28;20477;-73
2023/01/28 03:47:13;;;;;;;7.77;6.30;;;1.40;99.90;;;;;;4978214;28;20852;-72
2023/01/28 03:49:40;;;;;;;7.00;6.23;;;1.40;99.90;;;;;;4984892;28;20460;-72
2023/01/28 03:52:06;;;;;;;7.13;6.37;;;1.40;99.90;;;;;;4981447;28;20274;-72
2023/01/28 03:54:31;;;;;;;9.60;5.83;;;1.40;99.90;;;;;;4986922;28;20444;-72
2023/01/28 03:56:57;;;;;;;9.70;6.47;;;1.40;99.90;;;;;;4974508;28;20226;-74
2023/01/28 03:59:23;;;;;;;9.57;6.20;;;1.40;99.90;;;;;;4978292;28;20257;-72
2023/01/28 04:01:49;;;;;;;10.53;7.53;;;1.40;99.90;;;;;;4984174;28;20219;-72
2023/01/28 04:04:21;;;;;;;10.47;6.87;;;1.40;99.90;;;;;;4979787;28;20190;-72
2023/01/28 04:06:47;;;;;;;10.90;6.83;;;1.30;99.90;;;;;;4956411;28;20411;-71
2023/01/28 04:09:13;;;;;;;11.93;7.57;;;1.30;99.90;;;;;;4992071;28;20427;-72
2023/01/28 04:11:38;;;;;;;10.43;8.07;;;1.40;99.90;;;;;;4977095;28;20942;-72
2023/01/28 04:14:04;;;;;;;10.30;7.23;;;1.30;99.90;;;;;;4983258;28;20198;-72
2023/01/28 04:16:29;;;;;;;11.90;8.63;;;1.30;99.90;;;;;;4978369;28;20196;-72
2023/01/28 04:18:56;;;;;;;14.90;8.73;;;1.40;99.90;;;;;;4981130;28;20270;-72
2023/01/28 04:21:22;;;;;;;11.63;8.10;;;1.30;99.90;;;;;;4955383;28;20288;-73
2023/01/28 04:23:47;;;;;;;10.47;7.70;;;1.30;99.90;;;;;;4980701;28;20535;-72
2023/01/28 04:26:13;;;;;;;17.53;7.60;;;1.30;99.90;;;;;;4984727;28;20192;-73
2023/01/28 04:28:38;;;;;;;10.13;7.60;;;1.30;99.90;;;;;;4978164;28;20573;-73
2023/01/28 04:31:04;;;;;;;10.53;8.07;;;1.30;99.90;;;;;;4981288;28;20216;-74
2023/01/28 04:33:29;;;;;;;12.63;8.03;;;1.30;99.90;;;;;;4980854;28;20206;-73
2023/01/28 04:35:55;;;;;;;11.83;8.20;;;1.30;99.90;;;;;;4973329;28;20200;-73
2023/01/28 04:38:20;;;;;;;12.13;7.30;;;1.40;99.90;;;;;;4981259;28;20195;-71
2023/01/28 04:40:53;;;;;;;10.77;7.50;;;1.30;99.90;;;;;;4973705;28;20222;-73
2023/01/28 04:43:19;;;;;;;11.93;7.60;;;1.30;99.90;;;;;;4968031;28;20194;-72
2023/01/28 04:45:48;;;;;;;10.97;7.93;;;1.30;99.90;;;;;;4959244;28;20816;-70
2023/01/28 04:48:15;;;;;;;10.57;7.23;;;1.30;99.90;;;;;;4976744;28;20679;-72
2023/01/28 04:50:41;;;;;;;10.03;7.63;;;1.30;99.90;;;;;;4975279;28;20446;-72
2023/01/28 04:53:07;;;;;;;9.97;7.70;;;1.30;99.90;;;;;;4990276;28;20513;-72
2023/01/28 04:55:32;;;;;;;9.23;7.20;;;1.40;99.90;;;;;;4991398;28;20199;-72
2023/01/28 04:57:58;;;;;;;11.47;7.80;;;1.40;99.90;;;;;;4974275;28;20196;-72
2023/01/28 05:00:24;;;;;;;12.10;7.80;;;1.40;99.90;;;;;;4979917;28;20219;-69
2023/01/28 05:02:49;;;;;;;11.37;7.37;;;1.40;99.90;;;;;;4988028;28;20199;-71
2023/01/28 05:05:15;;;;;;;13.00;8.63;;;1.40;99.90;;;;;;4983746;28;20210;-71
2023/01/28 05:07:40;;;;;;;11.37;7.00;;;1.40;99.90;;;;;;4984490;28;20194;-72
2023/01/28 05:10:06;;;;;;;11.63;7.63;;;1.40;99.90;;;;;;4982697;28;20193;-73
2023/01/28 05:12:32;;;;;;;10.13;7.70;;;1.40;99.90;;;;;;4985389;28;20216;-74
2023/01/28 05:14:59;;;;;;;10.57;7.20;;;1.50;99.90;;;;;;4981643;28;20812;-72
2023/01/28 05:17:25;;;;;;;11.23;8.23;;;1.50;99.90;;;;;;4978786;28;20613;-72
2023/01/28 05:19:51;;;;;;;10.00;7.37;;;1.40;99.90;;;;;;4980668;28;20451;-72
2023/01/28 05:22:16;;;;;;;10.00;7.20;;;1.30;99.90;;;;;;4980231;28;20455;-72
2023/01/28 05:24:42;;;;;;;11.40;7.90;;;1.40;99.90;;;;;;4979325;28;20675;-72
2023/01/28 05:27:08;;;;;;;9.77;7.47;;;1.40;99.90;;;;;;4975666;28;20656;-72
2023/01/28 05:29:33;;;;;;;13.27;7.87;;;1.40;99.90;;;;;;4985006;28;20203;-72
2023/01/28 05:31:59;;;;;;;15.90;7.00;;;1.40;99.90;;;;;;4973611;28;20640;-74
2023/01/28 05:34:24;;;;;;;10.77;7.83;;;1.40;99.90;;;;;;4986072;28;20194;-72
2023/01/28 05:36:50;;;;;;;10.43;7.17;;;1.30;99.90;;;;;;4987880;28;20233;-71
2023/01/28 05:39:15;;;;;;;11.97;8.20;;;1.30;99.90;;;;;;4980300;28;20269;-72
2023/01/28 05:41:41;;;;;;;12.10;7.73;;;1.30;99.90;;;;;;4980205;28;20210;-72
2023/01/28 05:44:06;;;;;;;9.60;7.23;;;1.30;99.90;;;;;;4980023;28;20193;-72
2023/01/28 05:46:32;;;;;;;12.07;7.77;;;1.30;99.90;;;;;;4978036;28;20253;-73
2023/01/28 05:48:57;;;;;;;10.90;7.50;;;1.30;99.90;;;;;;4973404;28;20238;-72
2023/01/28 05:51:23;;;;;;;13.37;7.53;;;1.30;99.90;;;;;;4990900;28;20225;-72
2023/01/28 05:53:48;;;;;;;13.30;8.83;;;1.30;99.90;;;;;;4982890;28;20533;-71
2023/01/28 05:56:14;;;;;;;11.90;7.93;;;1.30;99.90;;;;;;4975327;28;20203;-72
2023/01/28 05:58:39;;;;;;;11.00;7.13;;;1.30;99.90;;;;;;4976843;28;20275;-73
2023/01/28 06:01:05;;;;;;;11.17;8.07;;;1.30;99.90;;;;;;4981588;28;20587;-72
2023/01/28 06:03:30;;;;;;;10.07;7.20;;;1.30;99.90;;;;;;4990723;28;20204;-72
2023/01/28 06:05:56;;;;;;;10.73;7.90;;;1.30;99.90;;;;;;4990817;28;20196;-73
2023/01/28 06:08:21;;;;;;;12.23;7.13;;;1.30;99.90;;;;;;4979028;28;20199;-73
2023/01/28 06:10:47;;;;;;;8.33;6.13;;;1.30;99.90;;;;;;4987400;28;20217;-72
2023/01/28 06:13:12;;;;;;;12.50;8.27;;;1.30;99.90;;;;;;4982906;28;20190;-73
2023/01/28 06:15:38;;;;;;;10.90;7.17;;;1.30;99.90;;;;;;4976169;28;20223;-73
2023/01/28 06:18:03;;;;;;;10.00;7.27;;;1.30;99.90;;;;;;4990406;28;20719;-74
2023/01/28 06:20:29;;;;;;;9.63;7.00;;;1.30;99.90;;;;;;4981411;28;20243;-73
2023/01/28 06:22:54;;;;;;;9.80;7.43;;;1.30;99.90;;;;;;4983351;28;20610;-72
2023/01/28 06:25:20;;;;;;;9.47;6.53;;;1.40;99.90;;;;;;4979024;28;20541;-73
2023/01/28 06:27:45;;;;;;;12.93;7.27;;;1.40;99.90;;;;;;4979498;28;20192;-72
2023/01/28 06:30:11;;;;;;;10.10;7.40;;;1.50;99.90;;;;;;4993394;28;20315;-71
2023/01/28 06:32:37;;;;;;;11.00;7.20;;;1.50;99.90;;;;;;4986320;28;20227;-72
2023/01/28 06:35:03;;;;;;;8.73;6.47;;;1.50;99.90;;;;;;4984718;28;20193;-74
2023/01/28 06:37:29;;;;;;;10.17;7.87;;;1.40;99.90;;;;;;4980465;28;20198;-75
2023/01/28 06:39:54;;;;;;;10.87;7.87;;;1.40;99.90;;;;;;4985841;28;20478;-71
2023/01/28 06:42:20;;;;;;;9.67;7.30;;;1.40;99.90;;;;;;4986530;28;20230;-73
2023/01/28 06:44:45;;;;;;;14.97;9.60;;;1.40;99.90;;;;;;4986789;28;20193;-73
2023/01/28 06:47:11;;;;;;;10.40;7.67;;;1.50;99.90;;;;;;4990713;28;20279;-72
2023/01/28 06:49:36;;;;;;;9.83;7.80;;;1.50;99.90;;;;;;4980905;28;20196;-71
2023/01/28 06:52:03;;;;;;;12.30;8.00;;;1.60;99.90;;;;;;4984133;28;20688;-71
2023/01/28 06:54:29;;;;;;;12.27;7.53;;;1.60;99.90;;;;;;4986711;28;20205;-71
2023/01/28 06:56:54;;;;;;;12.60;8.10;;;1.60;99.90;;;;;;4977554;28;20423;-72
2023/01/28 06:59:20;;;;;;;8.53;6.93;;;1.70;99.90;;;;;;4990070;28;20193;-75
2023/01/28 07:01:45;;;;;;;9.43;7.90;;;1.70;99.90;;;;;;4974521;28;20698;-71
2023/01/28 07:04:11;;;;;;;12.77;8.17;;;1.70;99.90;;;;;;4984419;28;20193;-70
2023/01/28 07:06:36;;;;;;;15.73;8.73;;;1.70;99.90;;;;;;4980212;28;20228;-72
2023/01/28 07:09:02;;;;;;;11.30;8.30;;;1.70;99.90;;;;;;4982465;28;20195;-71
2023/01/28 07:11:27;;;;;;;13.90;8.57;;;1.70;99.90;;;;;;4982463;28;20583;-71
2023/01/28 07:13:53;;;;;;;21.87;9.20;;;1.70;99.90;;;;;;4982444;28;20285;-72
2023/01/28 07:16:18;;;;;;;12.40;9.23;;;1.70;99.90;;;;;;4982538;28;20184;-71
2023/01/28 07:18:44;;;;;;;13.97;7.67;;;1.80;99.90;;;;;;4982726;28;20657;-71
2023/01/28 07:21:09;;;;;;;11.30;8.03;;;1.80;99.90;;;;;;4982117;28;20221;-71
2023/01/28 07:23:35;;;;;;;13.97;8.93;;;1.80;99.90;;;;;;4974086;28;20712;-70
2023/01/28 07:26:04;;;;;;;12.53;8.50;;;1.80;99.90;;;;;;4983387;28;20197;-71
2023/01/28 07:28:30;;;;;;;9.10;7.50;;;1.80;99.90;;;;;;4988482;28;20186;-69
2023/01/28 07:30:56;;;;;;;10.57;7.33;;;1.70;99.90;;;;;;4984041;28;20959;-71
2023/01/28 07:33:21;;;;;;;13.70;8.20;;;1.80;99.90;;;;;;4990021;28;20424;-71
2023/01/28 07:35:47;;;;;;;13.90;9.37;;;1.70;99.90;;;;;;4988966;28;20203;-71
2023/01/28 07:38:13;;;;;;;9.83;8.10;;;1.70;99.90;;;;;;4980250;28;20566;-71
2023/01/28 07:40:39;;;;;;;14.77;9.00;;;1.80;99.90;;;;;;4982228;28;20491;-71
2023/01/28 07:43:05;;;;;;;16.70;8.20;;;1.80;99.90;;;;;;4989989;28;20235;-72
2023/01/28 07:45:31;;;;;;;12.23;8.17;;;1.80;99.90;;;;;;4973873;28;20178;-72
2023/01/28 07:47:59;;;;;;;13.97;8.47;;;1.90;99.90;;;;;;4974189;28;20778;-71
2023/01/28 07:50:25;;;;;;;14.10;9.90;;;1.90;99.90;;;;;;4981695;28;20267;-72
2023/01/28 07:52:51;;;;;;;10.80;7.57;;;1.90;99.90;;;;;;4987378;28;20855;-71
2023/01/28 07:55:17;;;;;;;13.73;9.70;;;1.80;99.90;;;;;;4987217;28;20479;-71
2023/01/28 07:57:53;;;;;;;13.17;9.57;;;1.90;99.90;;;;;;4980852;28;20192;-71
2023/01/28 08:00:20;;;;;;;10.73;7.30;;;1.90;99.90;;;;;;4991106;28;20971;-72
2023/01/28 08:02:48;;;;;;;12.90;8.10;;;1.90;99.90;;;;;;4986241;28;20456;-70
2023/01/28 08:05:16;;;;;;;15.93;8.60;;;2.00;99.90;;;;;;4989378;28;20461;-71
2023/01/28 08:07:41;;;;;;;17.03;8.10;;;1.90;99.90;;;;;;4990283;28;20423;-71
2023/01/28 08:10:09;;;;;;;12.00;8.60;;;1.90;99.90;;;;;;4990384;28;20985;-71
2023/01/28 08:12:34;;;;;;;12.30;8.27;;;1.90;99.90;;;;;;4987671;28;20208;-73
2023/01/28 08:15:00;;;;;;;12.07;7.40;;;2.00;99.90;;;;;;4981458;28;20422;-72
2023/01/28 08:17:27;;;;;;;13.80;8.37;;;2.00;99.90;;;;;;4979705;28;20185;-71
2023/01/28 08:19:52;;;;;;;14.07;9.70;;;2.00;99.90;;;;;;4973522;28;20468;-71
2023/01/28 08:22:18;;;;;;;10.17;7.97;;;2.10;99.90;;;;;;4980014;28;20509;-71
2023/01/28 08:24:43;;;;;;;10.90;8.83;;;2.10;99.90;;;;;;4986560;28;20185;-72
2023/01/28 08:27:09;;;;;;;14.70;9.40;;;2.10;99.90;;;;;;4990730;28;20183;-72
2023/01/28 08:29:34;;;;;;;11.73;8.63;;;2.20;99.90;;;;;;4982945;28;20392;-71
2023/01/28 08:32:00;;;;;;;14.80;10.00;;;2.20;99.90;;;;;;4986915;28;20216;-72
2023/01/28 08:34:25;;;;;;;13.27;8.63;;;2.30;99.90;;;;;;4983624;28;20181;-71
2023/01/28 08:36:51;;;;;;;13.63;8.80;;;2.30;99.90;;;;;;4983177;28;20295;-71
2023/01/28 08:39:16;;;;;;;12.50;9.10;;;2.30;99.90;;;;;;4987521;28;20173;-71
2023/01/28 08:41:42;;;;;;;12.10;9.03;;;2.50;99.90;;;;;;4991261;28;20217;-72
2023/01/28 08:44:07;;;;;;;11.83;8.80;;;2.50;99.90;;;;;;4981063;28;20186;-72
2023/01/28 08:46:33;;;;;;;10.63;8.10;;;2.50;99.90;;;;;;4984836;28;20248;-70
2023/01/28 08:48:58;;;;;;;11.13;8.50;;;2.60;99.90;;;;;;4987598;28;20194;-73
2023/01/28 08:51:24;;;;;;;13.60;8.57;;;2.60;99.90;;;;;;4990532;28;20214;-72
2023/01/28 08:53:49;;;;;;;14.10;9.70;;;2.60;99.90;;;;;;4988165;28;20275;-71
2023/01/28 08:56:15;;;;;;;18.93;13.00;;;2.60;99.90;;;;;;4986576;28;20189;-72
2023/01/28 08:58:41;;;;;;;15.70;9.17;;;2.70;99.90;;;;;;4979270;28;20762;-70
2023/01/28 09:01:06;;;;;;;16.03;9.90;;;2.70;99.90;;;;;;4982799;28;20229;-70
2023/01/28 09:03:32;;;;;;;11.67;8.53;;;2.80;99.90;;;;;;4981683;28;20198;-71
2023/01/28 09:06:02;;;;;;;15.23;10.07;;;2.80;99.90;;;;;;4980955;28;20804;-73
2023/01/28 09:08:28;;;;;;;13.53;9.30;;;2.80;99.90;;;;;;4981672;28;20448;-71
2023/01/28 09:10:57;;;;;;;12.90;9.93;;;2.90;99.90;;;;;;4986304;28;20443;-70
2023/01/28 09:13:23;;;;;;;17.40;10.87;;;2.90;99.90;;;;;;4983785;28;20220;-71
2023/01/28 09:15:50;;;;;;;17.90;10.10;;;2.90;99.90;;;;;;4983791;28;20448;-70
2023/01/28 09:18:16;;;;;;;17.13;10.93;;;3.00;99.90;;;;;;4983497;28;20243;-71
2023/01/28 09:20:41;;;;;;;14.17;9.93;;;3.00;99.90;;;;;;4984145;28;20440;-71
2023/01/28 09:23:07;;;;;;;17.80;11.00;;;3.00;99.90;;;;;;4986606;28;20412;-71
2023/01/28 09:25:34;;;;;;;17.10;10.67;;;3.10;99.90;;;;;;4982785;28;20179;-72
2023/01/28 09:28:00;;;;;;;15.00;11.00;;;3.10;99.90;;;;;;4978454;28;20567;-71
2023/01/28 09:30:26;;;;;;;17.27;10.13;;;3.00;99.90;;;;;;4987636;28;20434;-71
2023/01/28 09:32:53;;;;;;;13.37;10.03;;;3.00;99.90;;;;;;4972581;28;20272;-71
2023/01/28 09:35:19;;;;;;;17.40;10.67;;;3.00;99.90;;;;;;4988175;28;20502;-70
2023/01/28 09:37:45;;;;;;;17.80;10.70;;;2.90;99.90;;;;;;4980636;28;20430;-72
2023/01/28 09:40:17;;;;;;;16.83;11.50;;;2.90;99.90;;;;;;4980908;28;20838;-72
2023/01/28 09:42:50;;;;;;;16.43;10.20;;;3.00;99.90;;;;;;4978110;28;20975;-71
2023/01/28 09:45:30;;;;;;;19.07;10.77;;;3.10;99.90;;;;;;4983826;28;20419;-74
2023/01/28 09:47:59;;;;;;;18.60;10.57;;;3.10;99.90;;;;;;4984588;28;20447;-70
2023/01/28 09:50:38;;;;;;;16.40;10.23;;;3.10;99.90;;;;;;4972144;28;20512;-71
2023/01/28 09:53:18;;;;;;;17.50;9.97;;;3.20;99.90;;;;;;4974031;28;20420;-70
2023/01/28 09:55:48;;;;;;;18.17;10.90;;;3.10;99.90;;;;;;4981171;28;20427;-71
2023/01/28 09:58:16;;;;;;;15.90;10.20;;;3.00;99.90;;;;;;4983672;28;20425;-71
2023/01/28 10:00:54;;;;;;;17.00;11.73;;;3.10;99.90;;;;;;4983071;28;20475;-71
2023/01/28 10:03:31;;;;;;;18.60;10.60;;;3.10;99.90;;;;;;4976537;28;20422;-72
2023/01/28 10:06:27;;;;;;;16.40;10.20;;;3.20;99.90;;;;;;4985048;28;20453;-72
2023/01/28 10:09:19;;;;;;;19.50;10.97;;;3.20;99.90;;;;;;4946002;28;20426;-70
2023/01/28 10:12:16;;;;;;;19.47;10.80;;;3.10;99.90;;;;;;4976264;28;20449;-71
2023/01/28 10:14:58;;;;;;;19.23;11.00;;;3.10;99.90;;;;;;4976593;28;20409;-70
2023/01/28 10:17:33;;;;;;;15.90;11.03;;;3.10;99.90;;;;;;4984629;28;20420;-71
2023/01/28 10:20:05;;;;;;;18.77;12.10;;;3.20;99.90;;;;;;4975995;28;20464;-72
2023/01/28 10:22:43;;;;;;;20.03;11.23;;;3.20;99.90;;;;;;4975553;28;20410;-70
2023/01/28 10:25:19;;;;;;;18.37;11.87;;;3.10;99.90;;;;;;4975992;28;20417;-71
2023/01/28 10:27:46;;;;;;;18.07;11.87;;;3.00;99.90;;;;;;4989320;28;20420;-72
2023/01/28 10:30:31;;;;;;;19.40;11.67;;;3.00;99.90;;;;;;4976026;28;20422;-73
2023/01/28 10:33:09;;;;;;;18.80;12.23;;;3.00;99.90;;;;;;4979555;28;20401;-72
2023/01/28 10:35:38;;;;;;;18.23;11.07;;;3.10;99.90;;;;;;4983469;28;20410;-73
2023/01/28 10:38:07;;;;;;;15.13;10.20;;;3.10;99.90;;;;;;4978316;28;20507;-72
2023/01/28 10:40:33;;;;;;;17.43;11.60;;;3.20;99.90;;;;;;4974361;28;20468;-72
2023/01/28 10:42:59;;;;;;;20.83;11.93;;;3.20;99.90;;;;;;4982068;28;20407;-72
2023/01/28 10:45:47;;;;;;;19.60;11.90;;;3.20;99.90;;;;;;4974438;28;20428;-72
2023/01/28 10:48:23;;;;;;;20.40;11.90;;;3.30;99.90;;;;;;4943115;28;20418;-70
2023/01/28 10:51:00;;;;;;;19.57;10.60;;;3.30;99.90;;;;;;4975233;28;20229;-70
2023/01/28 10:53:45;;;;;;;18.30;10.70;;;3.20;99.90;;;;;;4974754;28;20466;-72
2023/01/28 10:56:24;;;;;;;18.03;12.20;;;3.30;99.90;;;;;;4982435;28;20423;-70
2023/01/28 10:58:57;;;;;;;21.73;12.13;;;3.30;99.90;;;;;;4975197;28;20773;-68
2023/01/28 11:01:23;;;;;;;16.90;9.33;;;3.30;99.90;;;;;;4977382;28;20463;-71
2023/01/28 11:03:56;;;;;;;16.83;10.43;;;3.30;99.90;;;;;;4979882;28;20757;-69
2023/01/28 11:06:27;;;;;;;22.30;12.10;;;3.30;99.90;;;;;;4976267;28;20182;-71
2023/01/28 11:08:53;;;;;;;15.43;10.57;;;3.30;99.90;;;;;;4980259;28;20464;-72
2023/01/28 11:11:25;;;;;;;18.00;11.93;;;3.40;99.90;;;;;;4982355;28;20525;-70
2023/01/28 11:13:57;;;;;;;17.42;12.13;;;3.40;99.90;;;;;;4981150;28;20667;-72
2023/01/28 11:16:24;;;;;;;17.30;10.97;;;3.50;99.90;;;;;;4974523;28;20249;-71
2023/01/28 11:18:56;;;;;;;15.77;10.10;;;3.60;99.90;;;;;;4974925;28;20438;-71
2023/01/28 11:21:24;;;;;;;19.97;10.83;;;3.60;99.90;;;;;;4974298;28;20481;-74
2023/01/28 11:24:24;;;;;;;16.40;9.80;;;3.60;99.90;;;;;;4979859;28;20422;-71
2023/01/28 11:26:53;;;;;;;18.00;10.73;;;3.70;99.90;;;;;;4948676;28;20433;-72
2023/01/28 11:29:24;;;;;;;15.37;10.07;;;3.70;99.90;;;;;;4974687;28;20429;-70
2023/01/28 11:31:49;;;;;;;17.27;11.90;;;3.60;99.90;;;;;;4974304;28;20450;-71
2023/01/28 11:34:17;;;;;;;16.70;10.57;;;3.50;99.90;;;;;;4974034;28;20426;-71
2023/01/28 11:36:59;;;;;;;21.17;13.03;;;3.40;99.90;;;;;;4973906;28;20228;-71
2023/01/28 11:39:27;;;;;;;1386.70;693.03;;;3.40;99.90;;;;;;4974093;28;20420;-71
2023/01/28 11:41:53;;;;;;;26.57;11.60;;;3.40;99.90;;;;;;4982058;28;20512;-72
2023/01/28 11:44:22;;;;;;;20.40;10.90;;;3.20;99.90;;;;;;4972536;28;20785;-71
2023/01/28 11:47:02;;;;;;;21.30;11.27;;;3.20;99.90;;;;;;4955345;28;20191;-71
2023/01/28 11:49:46;;;;;;;37.17;29.83;;;3.20;99.90;;;;;;4972761;28;20421;-73
2023/01/28 11:52:23;;;;;;;25.80;11.97;;;3.10;99.90;;;;;;4973181;28;20541;-73
2023/01/28 11:55:00;;;;;;;30.00;11.23;;;3.00;99.90;;;;;;4983917;28;20940;-72
2023/01/28 11:57:49;;;;;;;26.20;11.93;;;3.00;99.90;;;;;;4973866;28;20423;-71
2023/01/28 12:00:30;;;;;;;28.73;13.70;;;2.90;99.90;;;;;;4973747;28;20811;-72
2023/01/28 12:03:29;;;;;;;29.03;12.07;;;2.90;99.90;;;;;;4956359;28;20422;-72
2023/01/28 12:06:11;;;;;;;29.30;11.10;;;3.00;99.90;;;;;;4937522;28;20432;-71
2023/01/28 12:08:41;;;;;;;30.33;12.43;;;3.00;99.90;;;;;;4973428;28;20424;-71
2023/01/28 12:12:10;;;;;;;28.40;11.77;;;2.90;99.90;;;;;;4973635;28;20817;-71
2023/01/28 12:14:47;;;;;;;34.00;13.40;;;2.90;99.90;;;;;;4972457;28;20635;-74
2023/01/28 12:17:33;;;;;;;28.33;12.20;;;2.90;99.90;;;;;;4973419;28;20180;-72
2023/01/28 12:20:08;;;;;;;34.65;14.77;;;2.90;99.90;;;;;;4972915;28;20946;-74
2023/01/28 12:22:43;;;;;;;30.33;12.83;;;2.90;99.90;;;;;;4973036;28;20209;-71
2023/01/28 12:25:11;;;;;;;31.97;13.70;;;2.80;99.90;;;;;;4976430;28;20424;-72
2023/01/28 12:27:57;;;;;;;29.27;12.40;;;2.90;99.90;;;;;;4981009;28;21107;-70
2023/01/28 12:31:01;;;;;;;34.07;12.00;;;2.90;99.90;;;;;;4974096;28;20414;-71
2023/01/28 12:33:52;;;;;;;31.53;10.20;;;2.90;99.90;;;;;;4971299;28;20441;-70
2023/01/28 12:36:30;;;;;;;30.57;11.57;;;2.90;99.90;;;;;;4977608;28;20503;-71
2023/01/28 12:39:11;;;;;;;28.80;11.27;;;2.80;99.90;;;;;;4973239;28;20435;-74
2023/01/28 12:41:45;;;;;;;29.80;10.77;;;2.80;99.90;;;;;;4986961;28;20479;-71
2023/01/28 12:44:19;;;;;;;26.07;9.30;;;2.80;99.90;;;;;;4990381;28;20925;-72
2023/01/28 12:46:54;;;;;;;33.20;10.90;;;2.80;99.90;;;;;;4983147;28;20426;-72
2023/01/28 12:49:42;;;;;;;27.50;10.87;;;2.90;99.90;;;;;;4977668;28;20425;-71
2023/01/28 12:52:14;;;;;;;32.97;10.97;;;2.90;99.90;;;;;;4984511;28;20521;-72
2023/01/28 12:55:02;;;;;;;27.97;10.30;;;2.90;99.90;;;;;;4985041;28;20469;-71
2023/01/28 12:57:31;;;;;;;29.03;10.53;;;2.90;99.90;;;;;;4981686;28;21021;-71
2023/01/28 13:00:17;;;;;;;32.20;11.00;;;2.80;99.90;;;;;;4988225;28;20914;-71
2023/01/28 13:03:15;;;;;;;34.93;11.67;;;2.80;99.90;;;;;;4991057;28;20430;-73
2023/01/28 13:05:47;;;;;;;23.90;8.93;;;2.70;99.90;;;;;;4949822;28;20506;-71
2023/01/28 13:08:15;;;;;;;33.80;12.10;;;2.60;99.90;;;;;;4991802;28;20409;-71
2023/01/28 13:10:43;;;;;;;25.53;9.83;;;2.60;99.90;;;;;;4976897;28;20457;-73
2023/01/28 13:13:17;;;;;;;22.30;9.00;;;2.60;99.90;;;;;;4986745;28;20436;-72
2023/01/28 13:15:45;;;;;;;27.13;9.30;;;2.60;99.90;;;;;;4980111;28;20421;-71
2023/01/28 13:18:32;;;;;;;22.30;9.40;;;2.60;99.90;;;;;;4980371;28;20452;-72
2023/01/28 13:20:59;;;;;;;25.13;9.70;;;2.60;99.90;;;;;;4977860;28;20480;-72
2023/01/28 13:23:35;;;;;;;25.30;10.30;;;2.60;99.90;;;;;;4982860;28;20519;-71
2023/01/28 13:26:10;;;;;;;22.77;7.83;;;2.60;99.90;;;;;;4990970;28;20841;-74
2023/01/28 13:28:35;;;;;;;23.40;8.97;;;2.60;99.90;;;;;;4988501;28;20480;-72
2023/01/28 13:31:16;;;;;;;23.47;9.40;;;2.60;99.90;;;;;;4986464;28;20476;-74
2023/01/28 13:33:45;;;;;;;25.73;10.00;;;2.60;99.90;;;;;;4987338;28;20226;-71
2023/01/28 13:36:22;;;;;;;23.40;9.93;;;2.60;99.90;;;;;;4988595;28;20796;-73
2023/01/28 13:38:58;;;;;;;26.33;9.83;;;2.60;99.90;;;;;;4987929;28;20470;-71
2023/01/28 13:41:23;;;;;;;24.07;10.40;;;2.50;99.90;;;;;;4989276;28;20945;-71
2023/01/28 13:43:49;;;;;;;24.37;9.80;;;2.50;99.90;;;;;;4994808;28;20499;-71
2023/01/28 13:46:27;;;;;;;24.23;9.87;;;2.50;99.90;;;;;;4992333;28;20177;-71
2023/01/28 13:48:57;;;;;;;24.70;10.13;;;2.40;99.90;;;;;;4990686;28;20230;-69
2023/01/28 13:51:34;;;;;;;26.30;10.60;;;2.40;99.90;;;;;;4966826;28;20445;-71
2023/01/28 13:54:17;;;;;;;30.13;13.02;;;2.50;99.90;;;;;;4985580;28;20423;-72
2023/01/28 13:56:58;;;;;;;26.27;10.77;;;2.50;99.90;;;;;;4991565;28;20267;-70
2023/01/28 13:59:52;;;;;;;26.88;11.40;;;2.60;99.90;;;;;;4985488;28;20414;-69
2023/01/28 14:02:39;;;;;;;30.77;13.05;;;2.60;99.90;;;;;;4968406;28;20412;-68
2023/01/28 14:05:22;;;;;;;29.00;11.30;;;2.60;99.90;;;;;;4988766;28;20165;-69
2023/01/28 14:08:26;;;;;;;32.22;12.00;;;2.70;99.90;;;;;;4978798;28;20482;-71
2023/01/28 14:11:01;;;;;;;30.50;11.00;;;2.70;99.90;;;;;;4986912;28;20217;-69
2023/01/28 14:13:52;;;;;;;24.60;9.97;;;2.80;99.90;;;;;;4993691;28;20420;-69
2023/01/28 14:16:43;;;;;;;28.07;10.60;;;2.80;99.90;;;;;;4985379;28;20503;-71
2023/01/28 14:19:12;;;;;;;24.90;9.53;;;2.80;99.90;;;;;;4985606;28;20419;-70
2023/01/28 14:21:38;;;;;;;23.77;9.47;;;2.80;99.90;;;;;;4989412;28;21564;-70
2023/01/28 14:24:04;;;;;;;28.93;10.27;;;2.90;99.90;;;;;;4994376;28;20421;-69
2023/01/28 14:26:55;;;;;;;23.70;9.60;;;2.90;99.90;;;;;;4985417;28;20556;-70
2023/01/28 14:29:39;;;;;;;22.20;9.27;;;2.90;99.90;;;;;;4986232;28;20415;-69
2023/01/28 14:32:17;;;;;;;23.33;8.93;;;2.80;99.90;;;;;;4984315;28;20494;-71
2023/01/28 14:34:45;;;;;;;23.30;8.70;;;2.80;99.90;;;;;;4975856;28;20443;-70
2023/01/28 14:37:20;;;;;;;25.80;8.53;;;2.80;99.90;;;;;;4978909;28;20449;-70
2023/01/28 14:39:55;;;;;;;22.70;8.73;;;2.70;99.90;;;;;;4981930;28;20444;-70
2023/01/28 14:42:26;;;;;;;21.70;7.90;;;2.70;99.90;;;;;;4957604;28;20473;-72